CDT,Max TemperatureF,Mean TemperatureF,Min TemperatureF,Max Dew PointF,MeanDew PointF,Min DewpointF,Max Humidity, Mean Humidity, Min Humidity, Max Sea Level PressureIn, Mean Sea Level PressureIn, Min Sea Level PressureIn, Max VisibilityMiles, Mean VisibilityMiles, Min VisibilityMiles, Max Wind SpeedMPH, Mean Wind SpeedMPH, Max Gust SpeedMPH,PrecipitationIn, CloudCover, Events, WindDirDegrees
2013-5-1,62,48,33,54,37,30,93,81,41,30.45,30.13,29.75,10,7,2,32,20,39,0.04,7,,22
2013-5-2,53,43,33,30,26,21,87,58,30,30.61,30.53,30.45,10,10,5,32,19,40,0.00,5,,2
2013-5-3,59,42,26,30,24,21,86,52,25,30.44,30.22,30.06,10,10,10,21,8,26,0.00,1,,353
2013-5-4,55,42,30,36,26,19,66,51,30,30.17,30.08,30.05,10,10,10,29,15,36,0.00,4,,356
2013-5-5,64,53,42,43,38,34,76,60,45,30.22,30.17,30.10,10,10,10,15,10,18,0.00,5,,12
2013-5-6,69,52,35,48,40,32,100,64,33,30.18,30.11,30.03,10,9,0,13,4,17,0.00,0,,104
2013-5-7,73,62,51,57,52,45,94,76,50,30.06,29.99,29.84,10,10,5,25,11,34,0.56,6,Thunderstorm,141
2013-5-8,75,63,51,59,53,48,94,75,53,29.96,29.89,29.81,10,10,7,24,12,33,0.78,3,Thunderstorm,118
2013-5-9,68,60,51,54,51,48,94,78,56,30.07,29.97,29.88,10,10,3,23,10,26,0.05,6,,344
2013-5-10,69,60,50,52,49,46,88,70,46,30.15,30.10,30.06,10,10,7,17,8,21,0.00,3,,350
2013-5-11,66,57,48,48,39,30,87,55,28,30.34,30.24,30.11,10,10,10,21,10,26,0.00,0,,13
2013-5-12,78,60,41,52,43,34,82,60,34,30.26,30.13,30.02,10,10,9,20,8,26,0.00,1,,132
2013-5-13,91,66,42,57,48,39,93,59,21,30.07,30.01,29.92,10,10,8,15,6,21,0.00,0,,166
2013-5-14,96,78,60,54,45,37,72,37,15,29.93,29.83,29.73,10,10,8,26,11,32,0.00,0,,213
2013-5-15,87,72,57,70,52,46,82,50,31,30.00,29.81,29.76,10,10,3,20,9,25,0.00,0,,179
2013-5-16,80,68,57,61,57,54,94,71,45,29.90,29.85,29.78,10,8,1,21,9,24,0.00,3,,159
2013-5-17,84,68,53,63,58,50,94,70,40,29.90,29.85,29.78,10,9,0,21,9,28,0.00,0,,154
2013-5-18,89,76,62,70,63,52,88,71,39,29.85,29.72,29.54,10,8,4,30,13,37,0.00,4,Thunderstorm,136
2013-5-19,80,68,57,57,54,50,82,61,37,29.72,29.64,29.56,10,10,6,33,11,48,0.07,2,Thunderstorm,246
2013-5-20,78,64,51,54,47,41,82,57,30,29.82,29.74,29.68,10,10,7,24,11,33,0.00,1,,288
2013-5-21,73,60,48,45,42,39,82,52,33,29.87,29.83,29.77,10,10,10,24,15,33,0.00,1,,311
2013-5-22,78,63,48,48,45,41,82,57,32,30.01,29.91,29.85,10,10,10,16,10,20,0.00,0,,342
2013-5-23,71,60,48,52,49,45,87,67,46,30.17,30.12,30.02,10,10,8,17,12,22,0.00,1,,70
2013-5-24,80,68,55,66,58,52,88,73,54,30.19,30.10,29.97,10,10,9,30,16,36,0.00,6,,141
2013-5-25,89,78,66,66,61,55,83,61,36,30.05,29.95,29.86,10,10,10,29,19,38,0.00,1,,173
2013-5-26,91,78,66,66,64,61,88,65,38,29.97,29.83,29.75,10,10,8,32,18,37,0.00,2,Thunderstorm,169
2013-5-27,98,84,69,68,61,37,83,58,15,29.74,29.62,29.48,10,10,10,31,18,43,0.00,0,,128
2013-5-28,93,78,62,70,61,48,94,68,28,29.68,29.62,29.53,10,9,2,23,11,28,0.04,3,Thunderstorm,46
2013-5-29,82,70,57,66,61,48,88,70,43,29.61,29.55,29.43,10,10,10,32,20,41,0.00,3,Thunderstorm,146
2013-5-30,77,66,55,57,55,45,94,75,44,29.72,29.63,29.54,10,10,3,24,10,40,1.17,4,Thunderstorm,154
2013-5-31,82,66,51,54,47,37,94,53,21,29.85,29.74,29.68,10,10,8,32,9,40,0.00,0,,306